sensor_id;sensor_type;location;lat;lon;timestamp;P1;durP1;ratioP1;P2;durP2;ratioP2
22648;SDS011;11491;41.942;24.220;2023-12-20T00:00:21;7.25;;;4.55;;
22648;SDS011;11491;41.942;24.220;2023-12-20T00:02:48;9.23;;;5.10;;
22648;SDS011;11491;41.942;24.220;2023-12-20T00:05:15;7.05;;;4.20;;
22648;SDS011;11491;41.942;24.220;2023-12-20T00:07:43;8.95;;;4.97;;
22648;SDS011;11491;41.942;24.220;2023-12-20T00:10:10;7.53;;;4.20;;
22648;SDS011;11491;41.942;24.220;2023-12-20T00:12:38;9.77;;;5.90;;
22648;SDS011;11491;41.942;24.220;2023-12-20T00:15:06;10.05;;;6.47;;
22648;SDS011;11491;41.942;24.220;2023-12-20T00:17:33;17.15;;;9.75;;
22648;SDS011;11491;41.942;24.220;2023-12-20T00:20:00;16.63;;;8.70;;
22648;SDS011;11491;41.942;24.220;2023-12-20T00:22:26;15.93;;;7.95;;
22648;SDS011;11491;41.942;24.220;2023-12-20T00:24:54;11.48;;;6.95;;
22648;SDS011;11491;41.942;24.220;2023-12-20T00:27:21;9.75;;;5.25;;
22648;SDS011;11491;41.942;24.220;2023-12-20T00:29:48;6.88;;;3.92;;
22648;SDS011;11491;41.942;24.220;2023-12-20T00:32:15;6.00;;;3.30;;
22648;SDS011;11491;41.942;24.220;2023-12-20T00:34:42;11.52;;;6.65;;
22648;SDS011;11491;41.942;24.220;2023-12-20T00:37:09;9.35;;;4.95;;
22648;SDS011;11491;41.942;24.220;2023-12-20T00:39:36;4.90;;;2.85;;
22648;SDS011;11491;41.942;24.220;2023-12-20T00:42:04;5.43;;;3.10;;
22648;SDS011;11491;41.942;24.220;2023-12-20T00:44:31;5.82;;;3.25;;
22648;SDS011;11491;41.942;24.220;2023-12-20T00:46:58;5.28;;;3.22;;
22648;SDS011;11491;41.942;24.220;2023-12-20T00:49:24;7.25;;;4.13;;
22648;SDS011;11491;41.942;24.220;2023-12-20T00:51:51;7.50;;;3.58;;
22648;SDS011;11491;41.942;24.220;2023-12-20T00:54:18;6.68;;;3.58;;
22648;SDS011;11491;41.942;24.220;2023-12-20T00:56:44;8.02;;;4.22;;
22648;SDS011;11491;41.942;24.220;2023-12-20T00:59:13;3.90;;;2.60;;
22648;SDS011;11491;41.942;24.220;2023-12-20T01:01:40;4.63;;;2.33;;
22648;SDS011;11491;41.942;24.220;2023-12-20T01:04:07;4.43;;;1.85;;
22648;SDS011;11491;41.942;24.220;2023-12-20T01:06:33;2.88;;;1.88;;
22648;SDS011;11491;41.942;24.220;2023-12-20T01:09:00;3.53;;;1.60;;
22648;SDS011;11491;41.942;24.220;2023-12-20T01:11:27;5.82;;;2.30;;
22648;SDS011;11491;41.942;24.220;2023-12-20T01:13:54;2.60;;;2.00;;
22648;SDS011;11491;41.942;24.220;2023-12-20T01:16:22;4.78;;;2.20;;
22648;SDS011;11491;41.942;24.220;2023-12-20T01:18:49;3.22;;;2.03;;
22648;SDS011;11491;41.942;24.220;2023-12-20T01:21:16;1.85;;;1.10;;
22648;SDS011;11491;41.942;24.220;2023-12-20T01:23:42;2.08;;;1.10;;
22648;SDS011;11491;41.942;24.220;2023-12-20T01:26:09;1.50;;;1.13;;
22648;SDS011;11491;41.942;24.220;2023-12-20T01:28:36;1.63;;;1.10;;
22648;SDS011;11491;41.942;24.220;2023-12-20T01:31:03;1.75;;;0.75;;
22648;SDS011;11491;41.942;24.220;2023-12-20T01:33:31;2.22;;;1.00;;
22648;SDS011;11491;41.942;24.220;2023-12-20T01:35:58;2.65;;;1.75;;
22648;SDS011;11491;41.942;24.220;2023-12-20T01:38:25;3.00;;;1.60;;
22648;SDS011;11491;41.942;24.220;2023-12-20T01:40:51;2.13;;;1.30;;
22648;SDS011;11491;41.942;24.220;2023-12-20T01:43:18;1.63;;;1.05;;
22648;SDS011;11491;41.942;24.220;2023-12-20T01:45:45;1.38;;;1.10;;
22648;SDS011;11491;41.942;24.220;2023-12-20T01:48:13;1.45;;;1.00;;
22648;SDS011;11491;41.942;24.220;2023-12-20T01:50:43;2.15;;;1.38;;
22648;SDS011;11491;41.942;24.220;2023-12-20T01:53:11;2.58;;;1.30;;
22648;SDS011;11491;41.942;24.220;2023-12-20T01:55:39;2.60;;;1.83;;
22648;SDS011;11491;41.942;24.220;2023-12-20T01:58:07;6.95;;;2.88;;
22648;SDS011;11491;41.942;24.220;2023-12-20T02:00:36;2.33;;;1.85;;
22648;SDS011;11491;41.942;24.220;2023-12-20T02:03:03;2.58;;;1.90;;
22648;SDS011;11491;41.942;24.220;2023-12-20T02:05:30;2.60;;;2.28;;
22648;SDS011;11491;41.942;24.220;2023-12-20T02:07:59;4.25;;;3.08;;
22648;SDS011;11491;41.942;24.220;2023-12-20T02:10:26;4.40;;;3.08;;
22648;SDS011;11491;41.942;24.220;2023-12-20T02:12:54;5.68;;;3.60;;
22648;SDS011;11491;41.942;24.220;2023-12-20T02:15:21;4.57;;;2.90;;
22648;SDS011;11491;41.942;24.220;2023-12-20T02:17:48;3.35;;;2.63;;
22648;SDS011;11491;41.942;24.220;2023-12-20T02:20:15;4.37;;;3.00;;
22648;SDS011;11491;41.942;24.220;2023-12-20T02:22:44;5.40;;;3.17;;
22648;SDS011;11491;41.942;24.220;2023-12-20T02:25:10;6.30;;;3.70;;
22648;SDS011;11491;41.942;24.220;2023-12-20T02:27:37;8.00;;;4.75;;
22648;SDS011;11491;41.942;24.220;2023-12-20T02:30:06;5.60;;;3.50;;
22648;SDS011;11491;41.942;24.220;2023-12-20T02:32:33;6.45;;;3.33;;
22648;SDS011;11491;41.942;24.220;2023-12-20T02:34:59;4.38;;;2.83;;
22648;SDS011;11491;41.942;24.220;2023-12-20T02:37:26;6.10;;;4.20;;
22648;SDS011;11491;41.942;24.220;2023-12-20T02:39:54;3.90;;;3.13;;
22648;SDS011;11491;41.942;24.220;2023-12-20T02:42:21;6.45;;;4.32;;
22648;SDS011;11491;41.942;24.220;2023-12-20T02:44:48;5.50;;;3.70;;
22648;SDS011;11491;41.942;24.220;2023-12-20T02:47:14;5.30;;;3.50;;
22648;SDS011;11491;41.942;24.220;2023-12-20T02:49:41;5.30;;;3.73;;
22648;SDS011;11491;41.942;24.220;2023-12-20T02:52:08;6.73;;;4.13;;
22648;SDS011;11491;41.942;24.220;2023-12-20T02:54:35;9.70;;;5.03;;
22648;SDS011;11491;41.942;24.220;2023-12-20T02:57:03;7.97;;;4.82;;
22648;SDS011;11491;41.942;24.220;2023-12-20T02:59:30;5.20;;;3.80;;
22648;SDS011;11491;41.942;24.220;2023-12-20T03:01:56;4.65;;;3.55;;
22648;SDS011;11491;41.942;24.220;2023-12-20T03:04:23;4.05;;;2.63;;
22648;SDS011;11491;41.942;24.220;2023-12-20T03:06:50;3.00;;;1.90;;
22648;SDS011;11491;41.942;24.220;2023-12-20T03:09:17;4.37;;;2.80;;
22648;SDS011;11491;41.942;24.220;2023-12-20T03:11:43;7.10;;;4.78;;
22648;SDS011;11491;41.942;24.220;2023-12-20T03:14:11;4.83;;;3.50;;
22648;SDS011;11491;41.942;24.220;2023-12-20T03:16:38;4.97;;;3.37;;
22648;SDS011;11491;41.942;24.220;2023-12-20T03:19:05;5.47;;;3.40;;
22648;SDS011;11491;41.942;24.220;2023-12-20T03:21:32;3.97;;;2.83;;
22648;SDS011;11491;41.942;24.220;2023-12-20T03:23:58;6.03;;;3.77;;
22648;SDS011;11491;41.942;24.220;2023-12-20T03:26:25;6.93;;;4.83;;
22648;SDS011;11491;41.942;24.220;2023-12-20T03:28:52;21.13;;;12.83;;
22648;SDS011;11491;41.942;24.220;2023-12-20T03:31:20;13.43;;;8.85;;
22648;SDS011;11491;41.942;24.220;2023-12-20T03:33:47;11.97;;;8.30;;
22648;SDS011;11491;41.942;24.220;2023-12-20T03:36:13;10.70;;;7.00;;
22648;SDS011;11491;41.942;24.220;2023-12-20T03:38:40;13.10;;;8.87;;
22648;SDS011;11491;41.942;24.220;2023-12-20T03:41:07;12.87;;;8.83;;
22648;SDS011;11491;41.942;24.220;2023-12-20T03:43:34;14.80;;;10.20;;
22648;SDS011;11491;41.942;24.220;2023-12-20T03:46:00;13.00;;;7.80;;
22648;SDS011;11491;41.942;24.220;2023-12-20T03:48:30;18.50;;;9.33;;
22648;SDS011;11491;41.942;24.220;2023-12-20T03:50:57;11.57;;;7.10;;
22648;SDS011;11491;41.942;24.220;2023-12-20T03:53:23;10.60;;;7.43;;
22648;SDS011;11491;41.942;24.220;2023-12-20T03:55:50;8.03;;;4.73;;
22648;SDS011;11491;41.942;24.220;2023-12-20T03:58:17;8.60;;;5.73;;
22648;SDS011;11491;41.942;24.220;2023-12-20T04:00:44;10.23;;;6.60;;
22648;SDS011;11491;41.942;24.220;2023-12-20T04:03:10;40.97;;;19.90;;
22648;SDS011;11491;41.942;24.220;2023-12-20T04:05:39;43.90;;;17.97;;
22648;SDS011;11491;41.942;24.220;2023-12-20T04:08:06;38.67;;;18.13;;
22648;SDS011;11491;41.942;24.220;2023-12-20T04:10:34;41.10;;;19.20;;
22648;SDS011;11491;41.942;24.220;2023-12-20T04:13:00;40.67;;;20.20;;
22648;SDS011;11491;41.942;24.220;2023-12-20T04:15:27;34.20;;;20.30;;
22648;SDS011;11491;41.942;24.220;2023-12-20T04:17:54;35.13;;;21.80;;
22648;SDS011;11491;41.942;24.220;2023-12-20T04:20:20;39.77;;;25.23;;
22648;SDS011;11491;41.942;24.220;2023-12-20T04:22:48;29.60;;;18.50;;
22648;SDS011;11491;41.942;24.220;2023-12-20T04:25:15;37.40;;;23.00;;
22648;SDS011;11491;41.942;24.220;2023-12-20T04:27:42;31.60;;;19.07;;
22648;SDS011;11491;41.942;24.220;2023-12-20T04:30:09;14.00;;;8.63;;
22648;SDS011;11491;41.942;24.220;2023-12-20T04:32:36;16.30;;;10.00;;
22648;SDS011;11491;41.942;24.220;2023-12-20T04:35:03;23.47;;;12.57;;
22648;SDS011;11491;41.942;24.220;2023-12-20T04:37:30;58.57;;;25.93;;
22648;SDS011;11491;41.942;24.220;2023-12-20T04:39:58;51.28;;;25.27;;
22648;SDS011;11491;41.942;24.220;2023-12-20T04:42:25;34.27;;;21.23;;
22648;SDS011;11491;41.942;24.220;2023-12-20T04:44:52;24.97;;;15.80;;
22648;SDS011;11491;41.942;24.220;2023-12-20T04:47:18;20.83;;;13.13;;
22648;SDS011;11491;41.942;24.220;2023-12-20T04:49:45;21.40;;;15.00;;
22648;SDS011;11491;41.942;24.220;2023-12-20T04:52:12;25.23;;;16.23;;
22648;SDS011;11491;41.942;24.220;2023-12-20T04:54:38;48.03;;;30.33;;
22648;SDS011;11491;41.942;24.220;2023-12-20T04:57:07;49.33;;;28.87;;
22648;SDS011;11491;41.942;24.220;2023-12-20T04:59:33;31.93;;;19.87;;
22648;SDS011;11491;41.942;24.220;2023-12-20T05:02:00;42.38;;;26.77;;
22648;SDS011;11491;41.942;24.220;2023-12-20T05:04:27;69.60;;;47.23;;
22648;SDS011;11491;41.942;24.220;2023-12-20T05:06:53;60.53;;;39.93;;
22648;SDS011;11491;41.942;24.220;2023-12-20T05:09:20;24.30;;;17.53;;
22648;SDS011;11491;41.942;24.220;2023-12-20T05:11:47;45.60;;;29.70;;
22648;SDS011;11491;41.942;24.220;2023-12-20T05:14:15;32.27;;;21.20;;
22648;SDS011;11491;41.942;24.220;2023-12-20T05:16:42;32.53;;;21.53;;
22648;SDS011;11491;41.942;24.220;2023-12-20T05:19:08;38.07;;;24.17;;
22648;SDS011;11491;41.942;24.220;2023-12-20T05:21:35;48.63;;;30.77;;
22648;SDS011;11491;41.942;24.220;2023-12-20T05:24:02;64.33;;;38.53;;
22648;SDS011;11491;41.942;24.220;2023-12-20T05:26:29;29.47;;;18.73;;
22648;SDS011;11491;41.942;24.220;2023-12-20T05:28:55;44.87;;;27.80;;
22648;SDS011;11491;41.942;24.220;2023-12-20T05:31:24;54.70;;;31.80;;
22648;SDS011;11491;41.942;24.220;2023-12-20T05:33:50;67.83;;;39.10;;
22648;SDS011;11491;41.942;24.220;2023-12-20T05:36:17;54.87;;;31.40;;
22648;SDS011;11491;41.942;24.220;2023-12-20T05:38:45;48.20;;;27.57;;
22648;SDS011;11491;41.942;24.220;2023-12-20T05:41:11;68.15;;;38.45;;
22648;SDS011;11491;41.942;24.220;2023-12-20T05:43:38;76.97;;;42.75;;
22648;SDS011;11491;41.942;24.220;2023-12-20T05:46:05;98.17;;;58.67;;
22648;SDS011;11491;41.942;24.220;2023-12-20T05:48:33;110.87;;;66.10;;
22648;SDS011;11491;41.942;24.220;2023-12-20T05:51:00;183.77;;;99.97;;
22648;SDS011;11491;41.942;24.220;2023-12-20T05:53:26;196.50;;;101.43;;
22648;SDS011;11491;41.942;24.220;2023-12-20T05:55:53;210.00;;;110.00;;
22648;SDS011;11491;41.942;24.220;2023-12-20T05:58:20;169.57;;;87.80;;
22648;SDS011;11491;41.942;24.220;2023-12-20T06:00:47;168.87;;;87.80;;
22648;SDS011;11491;41.942;24.220;2023-12-20T06:03:14;141.80;;;76.23;;
22648;SDS011;11491;41.942;24.220;2023-12-20T06:05:42;171.40;;;88.90;;
22648;SDS011;11491;41.942;24.220;2023-12-20T06:08:08;185.83;;;94.43;;
22648;SDS011;11491;41.942;24.220;2023-12-20T06:10:35;97.07;;;51.67;;
22648;SDS011;11491;41.942;24.220;2023-12-20T06:13:02;109.53;;;63.57;;
22648;SDS011;11491;41.942;24.220;2023-12-20T06:15:29;121.33;;;64.60;;
22648;SDS011;11491;41.942;24.220;2023-12-20T06:17:56;96.43;;;55.38;;
22648;SDS011;11491;41.942;24.220;2023-12-20T06:20:23;114.03;;;65.67;;
22648;SDS011;11491;41.942;24.220;2023-12-20T06:22:51;137.27;;;79.83;;
22648;SDS011;11491;41.942;24.220;2023-12-20T06:25:18;99.33;;;57.20;;
22648;SDS011;11491;41.942;24.220;2023-12-20T06:27:44;97.88;;;60.08;;
22648;SDS011;11491;41.942;24.220;2023-12-20T06:30:11;136.13;;;87.50;;
22648;SDS011;11491;41.942;24.220;2023-12-20T06:32:38;180.83;;;102.87;;
22648;SDS011;11491;41.942;24.220;2023-12-20T06:35:08;183.77;;;114.77;;
22648;SDS011;11491;41.942;24.220;2023-12-20T06:37:35;165.70;;;102.45;;
22648;SDS011;11491;41.942;24.220;2023-12-20T06:40:02;146.43;;;87.75;;
22648;SDS011;11491;41.942;24.220;2023-12-20T06:42:29;127.47;;;84.50;;
22648;SDS011;11491;41.942;24.220;2023-12-20T06:44:56;202.50;;;129.57;;
22648;SDS011;11491;41.942;24.220;2023-12-20T06:47:23;161.77;;;104.57;;
22648;SDS011;11491;41.942;24.220;2023-12-20T06:49:50;166.48;;;97.20;;
22648;SDS011;11491;41.942;24.220;2023-12-20T06:52:16;174.15;;;105.68;;
22648;SDS011;11491;41.942;24.220;2023-12-20T06:54:43;135.65;;;81.70;;
22648;SDS011;11491;41.942;24.220;2023-12-20T06:57:11;108.63;;;68.88;;
22648;SDS011;11491;41.942;24.220;2023-12-20T06:59:38;106.80;;;66.25;;
22648;SDS011;11491;41.942;24.220;2023-12-20T07:02:06;86.50;;;55.40;;
22648;SDS011;11491;41.942;24.220;2023-12-20T07:04:33;81.65;;;52.53;;
22648;SDS011;11491;41.942;24.220;2023-12-20T07:06:59;86.20;;;53.92;;
22648;SDS011;11491;41.942;24.220;2023-12-20T07:09:26;77.28;;;51.38;;
22648;SDS011;11491;41.942;24.220;2023-12-20T07:11:53;85.68;;;58.28;;
22648;SDS011;11491;41.942;24.220;2023-12-20T07:14:21;101.93;;;69.50;;
22648;SDS011;11491;41.942;24.220;2023-12-20T07:16:48;124.28;;;83.43;;
22648;SDS011;11491;41.942;24.220;2023-12-20T07:19:14;105.13;;;67.75;;
22648;SDS011;11491;41.942;24.220;2023-12-20T07:21:41;274.05;;;185.45;;
22648;SDS011;11491;41.942;24.220;2023-12-20T07:24:08;103.03;;;65.95;;
22648;SDS011;11491;41.942;24.220;2023-12-20T07:26:35;93.97;;;58.38;;
22648;SDS011;11491;41.942;24.220;2023-12-20T07:29:03;217.80;;;130.98;;
22648;SDS011;11491;41.942;24.220;2023-12-20T07:31:31;96.32;;;62.47;;
22648;SDS011;11491;41.942;24.220;2023-12-20T07:33:57;84.13;;;53.25;;
22648;SDS011;11491;41.942;24.220;2023-12-20T07:36:24;77.65;;;50.03;;
22648;SDS011;11491;41.942;24.220;2023-12-20T07:38:51;80.80;;;52.33;;
22648;SDS011;11491;41.942;24.220;2023-12-20T07:41:18;107.00;;;66.80;;
22648;SDS011;11491;41.942;24.220;2023-12-20T07:43:46;125.53;;;81.35;;
22648;SDS011;11491;41.942;24.220;2023-12-20T07:46:13;150.73;;;84.88;;
22648;SDS011;11491;41.942;24.220;2023-12-20T07:48:41;116.85;;;72.15;;
22648;SDS011;11491;41.942;24.220;2023-12-20T07:51:07;94.97;;;57.67;;
22648;SDS011;11491;41.942;24.220;2023-12-20T07:53:35;96.00;;;58.00;;
22648;SDS011;11491;41.942;24.220;2023-12-20T07:56:02;96.90;;;57.50;;
22648;SDS011;11491;41.942;24.220;2023-12-20T07:58:40;77.20;;;49.22;;
22648;SDS011;11491;41.942;24.220;2023-12-20T08:01:07;180.75;;;102.60;;
22648;SDS011;11491;41.942;24.220;2023-12-20T08:03:33;270.60;;;145.90;;
22648;SDS011;11491;41.942;24.220;2023-12-20T08:06:02;251.20;;;137.15;;
22648;SDS011;11491;41.942;24.220;2023-12-20T08:08:29;279.65;;;156.68;;
22648;SDS011;11491;41.942;24.220;2023-12-20T08:10:56;327.23;;;185.02;;
22648;SDS011;11491;41.942;24.220;2023-12-20T08:13:25;360.13;;;201.45;;
22648;SDS011;11491;41.942;24.220;2023-12-20T08:15:52;407.65;;;242.07;;
22648;SDS011;11491;41.942;24.220;2023-12-20T08:18:20;402.50;;;229.27;;
22648;SDS011;11491;41.942;24.220;2023-12-20T08:20:47;343.48;;;186.82;;
22648;SDS011;11491;41.942;24.220;2023-12-20T08:23:16;359.75;;;205.63;;
22648;SDS011;11491;41.942;24.220;2023-12-20T08:25:42;380.05;;;224.23;;
22648;SDS011;11491;41.942;24.220;2023-12-20T08:28:09;427.50;;;265.58;;
22648;SDS011;11491;41.942;24.220;2023-12-20T08:30:36;428.65;;;268.08;;
22648;SDS011;11491;41.942;24.220;2023-12-20T08:33:03;305.20;;;173.65;;
22648;SDS011;11491;41.942;24.220;2023-12-20T08:35:30;376.42;;;232.90;;
22648;SDS011;11491;41.942;24.220;2023-12-20T08:37:57;369.05;;;227.35;;
22648;SDS011;11491;41.942;24.220;2023-12-20T08:40:25;361.00;;;219.55;;
22648;SDS011;11491;41.942;24.220;2023-12-20T08:42:51;347.00;;;217.10;;
22648;SDS011;11491;41.942;24.220;2023-12-20T08:45:18;330.20;;;198.82;;
22648;SDS011;11491;41.942;24.220;2023-12-20T08:47:45;402.00;;;265.35;;
22648;SDS011;11491;41.942;24.220;2023-12-20T08:50:12;339.08;;;215.98;;
22648;SDS011;11491;41.942;24.220;2023-12-20T08:52:40;118.90;;;73.80;;
22648;SDS011;11491;41.942;24.220;2023-12-20T08:55:07;23.40;;;15.20;;
22648;SDS011;11491;41.942;24.220;2023-12-20T08:57:36;31.05;;;21.90;;
22648;SDS011;11491;41.942;24.220;2023-12-20T09:00:03;15.63;;;11.32;;
22648;SDS011;11491;41.942;24.220;2023-12-20T09:02:32;6.75;;;4.45;;
22648;SDS011;11491;41.942;24.220;2023-12-20T09:05:01;2.35;;;1.50;;
22648;SDS011;11491;41.942;24.220;2023-12-20T09:07:28;33.03;;;21.63;;
22648;SDS011;11491;41.942;24.220;2023-12-20T09:09:56;8.55;;;5.30;;
22648;SDS011;11491;41.942;24.220;2023-12-20T09:12:23;12.82;;;8.48;;
22648;SDS011;11491;41.942;24.220;2023-12-20T09:14:52;8.73;;;6.05;;
22648;SDS011;11491;41.942;24.220;2023-12-20T09:17:19;2.88;;;1.77;;
22648;SDS011;11491;41.942;24.220;2023-12-20T09:19:48;13.20;;;7.97;;
22648;SDS011;11491;41.942;24.220;2023-12-20T09:22:15;10.65;;;7.05;;
22648;SDS011;11491;41.942;24.220;2023-12-20T09:24:42;5.53;;;3.67;;
22648;SDS011;11491;41.942;24.220;2023-12-20T09:27:10;8.15;;;5.50;;
22648;SDS011;11491;41.942;24.220;2023-12-20T09:29:36;4.55;;;2.67;;
22648;SDS011;11491;41.942;24.220;2023-12-20T09:32:05;7.43;;;5.43;;
22648;SDS011;11491;41.942;24.220;2023-12-20T09:34:32;5.32;;;3.40;;
22648;SDS011;11491;41.942;24.220;2023-12-20T09:36:58;8.30;;;5.05;;
22648;SDS011;11491;41.942;24.220;2023-12-20T09:39:25;6.30;;;4.53;;
22648;SDS011;11491;41.942;24.220;2023-12-20T09:41:56;10.93;;;5.68;;
22648;SDS011;11491;41.942;24.220;2023-12-20T09:44:26;9.52;;;6.13;;
22648;SDS011;11491;41.942;24.220;2023-12-20T09:46:54;6.50;;;4.13;;
22648;SDS011;11491;41.942;24.220;2023-12-20T09:49:23;5.57;;;4.25;;
22648;SDS011;11491;41.942;24.220;2023-12-20T09:51:51;7.20;;;3.88;;
22648;SDS011;11491;41.942;24.220;2023-12-20T09:54:19;26.10;;;18.30;;
22648;SDS011;11491;41.942;24.220;2023-12-20T09:56:47;13.52;;;9.15;;
22648;SDS011;11491;41.942;24.220;2023-12-20T09:59:14;3.25;;;2.00;;
22648;SDS011;11491;41.942;24.220;2023-12-20T10:01:41;7.93;;;4.28;;
22648;SDS011;11491;41.942;24.220;2023-12-20T10:04:09;4.15;;;2.60;;
22648;SDS011;11491;41.942;24.220;2023-12-20T10:06:38;5.00;;;3.60;;
22648;SDS011;11491;41.942;24.220;2023-12-20T10:09:05;9.52;;;5.88;;
22648;SDS011;11491;41.942;24.220;2023-12-20T10:11:32;8.57;;;4.65;;
22648;SDS011;11491;41.942;24.220;2023-12-20T10:14:02;9.30;;;4.95;;
22648;SDS011;11491;41.942;24.220;2023-12-20T10:16:30;8.18;;;4.53;;
22648;SDS011;11491;41.942;24.220;2023-12-20T10:18:58;6.53;;;4.22;;
22648;SDS011;11491;41.942;24.220;2023-12-20T10:21:27;6.70;;;4.03;;
22648;SDS011;11491;41.942;24.220;2023-12-20T10:23:55;4.72;;;2.88;;
22648;SDS011;11491;41.942;24.220;2023-12-20T10:26:23;7.38;;;5.80;;
22648;SDS011;11491;41.942;24.220;2023-12-20T10:28:51;3.63;;;2.20;;
22648;SDS011;11491;41.942;24.220;2023-12-20T10:31:25;4.00;;;2.75;;
22648;SDS011;11491;41.942;24.220;2023-12-20T10:33:53;25.63;;;15.57;;
22648;SDS011;11491;41.942;24.220;2023-12-20T10:36:23;11.65;;;7.82;;
22648;SDS011;11491;41.942;24.220;2023-12-20T10:38:51;5.93;;;4.25;;
22648;SDS011;11491;41.942;24.220;2023-12-20T10:41:22;3.20;;;2.00;;
22648;SDS011;11491;41.942;24.220;2023-12-20T10:43:52;15.38;;;10.60;;
22648;SDS011;11491;41.942;24.220;2023-12-20T10:46:21;2.65;;;1.83;;
22648;SDS011;11491;41.942;24.220;2023-12-20T10:48:48;8.45;;;5.05;;
22648;SDS011;11491;41.942;24.220;2023-12-20T10:51:18;4.93;;;2.63;;
22648;SDS011;11491;41.942;24.220;2023-12-20T10:53:45;3.97;;;2.55;;
22648;SDS011;11491;41.942;24.220;2023-12-20T10:56:15;13.95;;;7.68;;
22648;SDS011;11491;41.942;24.220;2023-12-20T10:58:44;8.40;;;5.13;;
22648;SDS011;11491;41.942;24.220;2023-12-20T11:01:12;0.98;;;0.40;;
22648;SDS011;11491;41.942;24.220;2023-12-20T11:03:42;8.45;;;5.80;;
22648;SDS011;11491;41.942;24.220;2023-12-20T11:06:13;4.78;;;3.60;;
22648;SDS011;11491;41.942;24.220;2023-12-20T11:08:58;4.57;;;3.08;;
22648;SDS011;11491;41.942;24.220;2023-12-20T11:11:35;0.77;;;0.60;;
22648;SDS011;11491;41.942;24.220;2023-12-20T11:14:11;5.53;;;3.83;;
22648;SDS011;11491;41.942;24.220;2023-12-20T11:16:43;9.80;;;7.50;;
22648;SDS011;11491;41.942;24.220;2023-12-20T11:19:10;11.80;;;7.80;;
22648;SDS011;11491;41.942;24.220;2023-12-20T11:21:39;15.77;;;11.38;;
22648;SDS011;11491;41.942;24.220;2023-12-20T11:24:06;18.98;;;12.65;;
22648;SDS011;11491;41.942;24.220;2023-12-20T11:26:33;18.52;;;12.85;;
22648;SDS011;11491;41.942;24.220;2023-12-20T11:32:00;13.45;;;9.98;;
22648;SDS011;11491;41.942;24.220;2023-12-20T11:34:32;11.02;;;7.15;;
22648;SDS011;11491;41.942;24.220;2023-12-20T11:37:02;2.15;;;1.35;;
22648;SDS011;11491;41.942;24.220;2023-12-20T11:39:29;8.10;;;4.78;;
22648;SDS011;11491;41.942;24.220;2023-12-20T11:41:57;3.38;;;1.77;;
22648;SDS011;11491;41.942;24.220;2023-12-20T11:44:30;9.45;;;6.80;;
22648;SDS011;11491;41.942;24.220;2023-12-20T11:46:58;17.17;;;10.93;;
22648;SDS011;11491;41.942;24.220;2023-12-20T11:49:25;12.13;;;9.18;;
22648;SDS011;11491;41.942;24.220;2023-12-20T11:51:54;14.75;;;10.07;;
22648;SDS011;11491;41.942;24.220;2023-12-20T11:54:21;32.30;;;20.90;;
22648;SDS011;11491;41.942;24.220;2023-12-20T11:56:47;19.00;;;12.18;;
22648;SDS011;11491;41.942;24.220;2023-12-20T11:59:14;8.93;;;5.47;;
22648;SDS011;11491;41.942;24.220;2023-12-20T12:01:47;8.73;;;7.18;;
22648;SDS011;11491;41.942;24.220;2023-12-20T12:04:16;9.13;;;7.30;;
22648;SDS011;11491;41.942;24.220;2023-12-20T12:06:43;29.23;;;17.73;;
22648;SDS011;11491;41.942;24.220;2023-12-20T12:09:10;26.10;;;17.50;;
22648;SDS011;11491;41.942;24.220;2023-12-20T12:11:37;24.20;;;16.67;;
22648;SDS011;11491;41.942;24.220;2023-12-20T12:14:04;16.33;;;11.32;;
22648;SDS011;11491;41.942;24.220;2023-12-20T12:16:31;8.65;;;5.00;;
22648;SDS011;11491;41.942;24.220;2023-12-20T12:18:58;15.25;;;10.80;;
22648;SDS011;11491;41.942;24.220;2023-12-20T12:21:27;21.13;;;13.85;;
22648;SDS011;11491;41.942;24.220;2023-12-20T12:23:53;15.75;;;10.75;;
22648;SDS011;11491;41.942;24.220;2023-12-20T12:26:20;35.17;;;20.48;;
22648;SDS011;11491;41.942;24.220;2023-12-20T12:28:47;47.22;;;24.80;;
22648;SDS011;11491;41.942;24.220;2023-12-20T12:31:13;27.13;;;16.95;;
22648;SDS011;11491;41.942;24.220;2023-12-20T12:33:41;31.17;;;19.95;;
22648;SDS011;11491;41.942;24.220;2023-12-20T12:36:09;23.08;;;17.58;;
22648;SDS011;11491;41.942;24.220;2023-12-20T12:38:37;23.55;;;17.90;;
22648;SDS011;11491;41.942;24.220;2023-12-20T12:41:04;29.35;;;19.05;;
22648;SDS011;11491;41.942;24.220;2023-12-20T12:43:32;31.20;;;22.25;;
22648;SDS011;11491;41.942;24.220;2023-12-20T12:45:59;40.70;;;29.42;;
22648;SDS011;11491;41.942;24.220;2023-12-20T12:48:26;49.13;;;36.25;;
22648;SDS011;11491;41.942;24.220;2023-12-20T12:50:53;29.88;;;22.77;;
22648;SDS011;11491;41.942;24.220;2023-12-20T12:53:24;22.65;;;13.60;;
22648;SDS011;11491;41.942;24.220;2023-12-20T12:55:52;8.43;;;4.90;;
22648;SDS011;11491;41.942;24.220;2023-12-20T12:58:19;14.63;;;10.80;;
22648;SDS011;11491;41.942;24.220;2023-12-20T13:00:47;13.40;;;9.18;;
22648;SDS011;11491;41.942;24.220;2023-12-20T13:03:14;14.95;;;10.30;;
22648;SDS011;11491;41.942;24.220;2023-12-20T13:05:41;27.13;;;19.20;;
22648;SDS011;11491;41.942;24.220;2023-12-20T13:08:08;14.32;;;9.55;;
22648;SDS011;11491;41.942;24.220;2023-12-20T13:10:37;12.20;;;8.20;;
22648;SDS011;11491;41.942;24.220;2023-12-20T13:13:05;21.52;;;14.88;;
22648;SDS011;11491;41.942;24.220;2023-12-20T13:15:32;38.33;;;29.90;;
22648;SDS011;11491;41.942;24.220;2023-12-20T13:17:58;34.65;;;24.98;;
22648;SDS011;11491;41.942;24.220;2023-12-20T13:20:26;40.35;;;29.48;;
22648;SDS011;11491;41.942;24.220;2023-12-20T13:22:52;40.85;;;27.58;;
22648;SDS011;11491;41.942;24.220;2023-12-20T13:25:19;40.63;;;27.70;;
22648;SDS011;11491;41.942;24.220;2023-12-20T13:27:46;39.63;;;29.10;;
22648;SDS011;11491;41.942;24.220;2023-12-20T13:30:15;41.20;;;29.70;;
22648;SDS011;11491;41.942;24.220;2023-12-20T13:32:42;80.13;;;53.60;;
22648;SDS011;11491;41.942;24.220;2023-12-20T13:35:09;41.83;;;26.55;;
22648;SDS011;11491;41.942;24.220;2023-12-20T13:37:36;22.00;;;15.93;;
22648;SDS011;11491;41.942;24.220;2023-12-20T13:40:03;18.90;;;12.30;;
22648;SDS011;11491;41.942;24.220;2023-12-20T13:42:31;10.10;;;7.28;;
22648;SDS011;11491;41.942;24.220;2023-12-20T13:44:57;40.08;;;25.80;;
22648;SDS011;11491;41.942;24.220;2023-12-20T13:47:25;75.32;;;45.33;;
22648;SDS011;11491;41.942;24.220;2023-12-20T13:49:52;90.95;;;55.30;;
22648;SDS011;11491;41.942;24.220;2023-12-20T13:52:19;91.28;;;55.78;;
22648;SDS011;11491;41.942;24.220;2023-12-20T13:54:46;146.05;;;86.10;;
22648;SDS011;11491;41.942;24.220;2023-12-20T13:57:12;92.72;;;56.60;;
22648;SDS011;11491;41.942;24.220;2023-12-20T13:59:39;113.43;;;72.22;;
22648;SDS011;11491;41.942;24.220;2023-12-20T14:02:06;114.68;;;76.55;;
22648;SDS011;11491;41.942;24.220;2023-12-20T14:04:34;99.03;;;67.88;;
22648;SDS011;11491;41.942;24.220;2023-12-20T14:07:04;139.70;;;90.85;;
22648;SDS011;11491;41.942;24.220;2023-12-20T14:09:32;143.85;;;89.43;;
22648;SDS011;11491;41.942;24.220;2023-12-20T14:11:59;100.43;;;62.42;;
22648;SDS011;11491;41.942;24.220;2023-12-20T14:14:26;88.30;;;57.20;;
22648;SDS011;11491;41.942;24.220;2023-12-20T14:16:52;109.15;;;72.55;;
22648;SDS011;11491;41.942;24.220;2023-12-20T14:19:19;99.88;;;56.75;;